Aviation Digital Data Service (ADDS)

Output produced by METARs form (1805 UTC 19 October 2017)
found at http://www.aviationweather.gov/adds/metars/
 
UMBB 191300Z 09004MPS 8000 BKN024CB 16/10 Q1016 NOSIG
TAF UMBB 191705Z 1918/2003 09005MPS 3000 BR BKN007 
     TEMPO 1921/2003 0500 FG VV006
       
UMGG 191800Z 03003MPS CAVOK 09/05 Q1018 R28/D NOSIG
TAF UMGG 191700Z 1918/2018 02005MPS 6000 BKN015 
     TEMPO 1918/1921 2000 BR BKN005 
     TEMPO 1921/2006 0500 FG VV002 
     BECMG 2006/2008 05006MPS 9999 NSW
       
UMMG 191600Z 04003MPS 9999 BKN023 BKN066 11/09 Q1018 NOSIG
TAF UMMG 191400Z 1915/1924 05005MPS 9999 BKN016 
     TEMPO 1915/1917 6000 
     TEMPO 1917/1924 VRB02MPS 2000 BR SCT005
       
UMBB 191300Z 09004MPS 8000 BKN024CB 16/10 Q1016 NOSIG
TAF UMBB 191705Z 1918/2003 09005MPS 3000 BR BKN007 
     TEMPO 1921/2003 0500 FG VV006
       
UMGG 191800Z 03003MPS CAVOK 09/05 Q1018 R28/D NOSIG
TAF UMGG 191700Z 1918/2018 02005MPS 6000 BKN015 
     TEMPO 1918/1921 2000 BR BKN005 
     TEMPO 1921/2006 0500 FG VV002 
     BECMG 2006/2008 05006MPS 9999 NSW
       
UMII 191600Z 33001MPS 9000 BKN045 08/02 Q1019 R23/D NOSIG
TAF UMII 191405Z 1915/1924 30005MPS 6000 BKN020 
     TEMPO 1915/1924 2000 SHRA BR BKN005 BKN012CB
       
UMKK 191730Z 06002MPS CAVOK 09/07 Q1020 R24/60D NOSIG RMK QFE764/1019
TAF UMKK 191700Z 1918/2018 09003G08MPS 6000 BKN012 
     TEMPO 1918/2006 VRB01MPS 2100 BR MIFG SCT005 
     BECMG 2006/2008 12003G08MPS BKN010 
     TEMPO 2008/2018 BKN006
       
UMMG 191600Z 04003MPS 9999 BKN023 BKN066 11/09 Q1018 NOSIG
TAF UMMG 191400Z 1915/1924 05005MPS 9999 BKN016 
     TEMPO 1915/1917 6000 
     TEMPO 1917/1924 VRB02MPS 2000 BR SCT005
       
UMMM 191400Z 04002MPS CAVOK 11/04 Q1019 RMK QFE744
UMMS 191800Z 00000MPS 7000 BCFG NSC 00/00 Q1020 R31/D NOSIG
TAF UMMS 191710Z 1918/2018 VRB02MPS 5000 BR SCT003 TX10/2011Z TNM00/1919Z 
     TEMPO 1918/2008 0300 FZFG VV002 
     FM200800 04005MPS 8000 SCT010
       
UMOO 191300Z 01002MPS CAVOK 10/02 Q1018 R31/CLRD// NOSIG
TAF UMOO 191100Z 1912/1921 VRB02MPS 9999 BKN015
       
UMMM 191400Z 04002MPS CAVOK 11/04 Q1019 RMK QFE744
UMMS 191800Z 00000MPS 7000 BCFG NSC 00/00 Q1020 R31/D NOSIG
TAF UMMS 191710Z 1918/2018 VRB02MPS 5000 BR SCT003 TX10/2011Z TNM00/1919Z 
     TEMPO 1918/2008 0300 FZFG VV002 
     FM200800 04005MPS 8000 SCT010
       
UMOO 191300Z 01002MPS CAVOK 10/02 Q1018 R31/CLRD// NOSIG
TAF UMOO 191100Z 1912/1921 VRB02MPS 9999 BKN015